Time;durP1;ratioP1;P1;durP2;ratioP2;P2;SDS_P1;SDS_P2;PMS_P1;PMS_P2;Temp;Humidity;BMP_temperature;BMP_pressure;BME280_temperature;BME280_humidity;BME280_pressure;Samples;Min_cycle;Max_cycle;Signal;HPM_P1;HPM_P2
2021/11/24 00:00:05;;;;;;;7.17;5.40;;;;;;;0.30;95.81;151446.66;5076294;28;20805;-74
2021/11/24 00:02:41;;;;;;;6.93;5.63;;;;;;;0.31;95.58;151449.25;5080349;28;20532;-73
2021/11/24 00:05:19;;;;;;;7.60;5.03;;;;;;;0.26;95.71;151437.72;5114258;28;20549;-73
2021/11/24 00:07:55;;;;;;;6.00;5.00;;;;;;;0.30;95.93;151446.66;5094628;28;20414;-74
2021/11/24 00:10:32;;;;;;;6.93;5.10;;;;;;;0.22;95.96;151426.13;5086486;28;20455;-74
2021/11/24 00:13:08;;;;;;;7.00;6.30;;;;;;;0.17;96.29;151413.28;5114508;28;20894;-73
2021/11/24 00:15:43;;;;;;;6.90;5.50;;;;;;;0.15;96.76;151409.47;5095346;28;20452;-73
2021/11/24 00:18:19;;;;;;;5.97;4.70;;;;;;;0.14;97.67;151406.88;5114530;28;20419;-73
2021/11/24 00:20:55;;;;;;;7.53;5.30;;;;;;;0.09;98.30;151392.75;5113654;28;20479;-73
2021/11/24 00:23:31;;;;;;;6.73;5.50;;;;;;;0.07;97.68;151388.94;5092250;28;20437;-73
2021/11/24 00:26:06;;;;;;;7.27;5.80;;;;;;;0.06;98.38;151386.34;5096135;28;20502;-73
2021/11/24 00:28:42;;;;;;;6.90;5.90;;;;;;;0.06;98.96;151385.06;5095461;28;20450;-73
2021/11/24 00:31:18;;;;;;;7.00;5.73;;;;;;;-0.08;98.58;151351.69;5095909;28;20451;-73
2021/11/24 00:33:53;;;;;;;6.30;5.20;;;;;;;-0.14;98.66;151335.03;5113598;28;20455;-73
2021/11/24 00:36:30;;;;;;;7.37;5.50;;;;;;;-0.14;99.17;151335.03;5095760;28;20442;-73
2021/11/24 00:39:05;;;;;;;7.23;6.40;;;;;;;-0.12;99.27;151341.44;5113911;28;20441;-74
2021/11/24 00:41:41;;;;;;;8.53;6.10;;;;;;;-0.06;100.00;151355.56;5092573;28;20849;-74
2021/11/24 00:44:17;;;;;;;7.37;6.07;;;;;;;-0.09;99.79;151347.88;5109336;28;20922;-74
2021/11/24 00:46:53;;;;;;;8.13;5.97;;;;;;;-0.11;99.65;151342.75;5095262;28;20854;-73
2021/11/24 00:49:28;;;;;;;7.50;5.70;;;;;;;-0.08;100.00;151351.69;5095785;28;20497;-73
2021/11/24 00:52:06;;;;;;;7.57;6.03;;;;;;;-0.08;99.36;151351.69;5092505;28;20441;-73
2021/11/24 00:54:41;;;;;;;7.33;5.60;;;;;;;-0.02;99.00;151367.09;5094671;28;20905;-73
2021/11/24 00:57:17;;;;;;;8.27;6.27;;;;;;;-0.05;98.84;151358.09;5095434;28;20432;-73
2021/11/24 00:59:53;;;;;;;9.07;6.70;;;;;;;-0.06;99.06;151356.88;5094910;28;20537;-73
2021/11/24 01:02:28;;;;;;;9.20;6.97;;;;;;;-0.04;98.74;151361.97;5095080;28;20495;-73
2021/11/24 01:05:05;;;;;;;8.50;6.57;;;;;;;-0.06;99.04;151356.88;5094526;28;20432;-74
2021/11/24 01:07:41;;;;;;;9.80;7.30;;;;;;;-0.12;98.88;151341.44;5095227;28;20960;-74
2021/11/24 01:10:17;;;;;;;8.57;6.23;;;;;;;-0.13;100.00;151338.88;5092943;28;20479;-73
2021/11/24 01:12:53;;;;;;;8.40;6.73;;;;;;;-0.13;100.00;151338.88;5090943;28;20446;-73
2021/11/24 01:15:28;;;;;;;9.77;7.70;;;;;;;-0.14;100.00;151336.34;5091790;28;20434;-73
2021/11/24 01:18:04;;;;;;;10.03;7.43;;;;;;;-0.15;99.72;151333.75;5094350;28;20434;-73
2021/11/24 01:20:40;;;;;;;6.50;5.70;;;;;;;-0.14;99.53;151335.03;5091209;28;20482;-73
2021/11/24 01:23:18;;;;;;;8.20;6.37;;;;;;;-0.13;99.54;151338.88;5090446;28;20535;-73
2021/11/24 01:25:53;;;;;;;9.80;6.87;;;;;;;-0.13;100.00;151338.88;5091836;28;20781;-73
2021/11/24 01:28:29;;;;;;;10.20;6.60;;;;;;;-0.13;99.24;151338.88;5076212;28;20430;-73
2021/11/24 01:31:04;;;;;;;12.63;6.37;;;;;;;-0.18;99.65;151326.03;5078623;28;20442;-73
2021/11/24 01:33:40;;;;;;;7.23;6.50;;;;;;;-0.12;99.12;151341.44;5098515;28;20545;-73
2021/11/24 01:36:16;;;;;;;9.90;7.07;;;;;;;-0.11;99.47;151344.00;5091181;28;20456;-74
2021/11/24 01:38:53;;;;;;;8.30;5.90;;;;;;;-0.05;98.75;151359.41;5091517;28;20816;-74
2021/11/24 01:41:28;;;;;;;9.93;6.97;;;;;;;-0.10;99.12;151346.56;5090938;28;20457;-73
2021/11/24 01:44:04;;;;;;;6.60;6.00;;;;;;;-0.06;98.49;151356.88;5092089;28;20788;-73
2021/11/24 01:46:40;;;;;;;7.10;6.10;;;;;;;-0.04;98.63;151361.97;5092756;28;20413;-73
2021/11/24 01:49:15;;;;;;;11.77;7.27;;;;;;;-0.02;98.50;151367.09;5091147;28;20445;-74
2021/11/24 01:51:51;;;;;;;8.30;7.10;;;;;;;-0.06;98.23;151355.56;5074984;28;20446;-73
2021/11/24 01:54:29;;;;;;;7.13;6.40;;;;;;;-0.07;98.54;151354.28;5083618;28;20486;-73
2021/11/24 01:57:04;;;;;;;10.20;6.03;;;;;;;-0.09;98.87;151347.88;5091747;28;20542;-73
2021/11/24 01:59:40;;;;;;;9.77;6.80;;;;;;;-0.07;98.43;151354.28;5092506;28;20444;-73
2021/11/24 02:02:17;;;;;;;8.03;6.40;;;;;;;-0.09;98.66;151349.16;5089951;28;20441;-73
2021/11/24 02:04:53;;;;;;;11.70;7.00;;;;;;;-0.12;99.50;151341.44;5090174;28;20549;-74
2021/11/24 02:07:28;;;;;;;9.07;6.50;;;;;;;-0.14;99.23;151336.34;5090953;28;20436;-74
2021/11/24 02:10:06;;;;;;;12.07;6.73;;;;;;;-0.16;100.00;151331.16;5089372;28;20455;-74
2021/11/24 02:12:42;;;;;;;8.73;6.80;;;;;;;-0.26;100.00;151305.50;5087725;28;20449;-73
2021/11/24 02:15:18;;;;;;;8.40;6.80;;;;;;;-0.19;99.84;151323.50;5090082;28;20868;-73
2021/11/24 02:17:54;;;;;;;8.40;6.40;;;;;;;-0.09;98.34;151349.16;5092428;28;20512;-74
2021/11/24 02:20:42;;;;;;;9.23;6.40;;;;;;;-0.13;98.46;151338.88;5096179;28;20910;-73
2021/11/24 02:23:17;;;;;;;11.17;6.73;;;;;;;-0.14;99.91;151335.03;5112327;28;20476;-73
2021/11/24 02:25:53;;;;;;;7.90;6.57;;;;;;;-0.20;99.26;151320.91;5094481;28;20440;-73
2021/11/24 02:28:28;;;;;;;7.63;5.97;;;;;;;-0.25;99.84;151306.81;5114395;28;20447;-74
2021/11/24 02:31:04;;;;;;;8.13;6.70;;;;;;;-0.31;99.63;151292.69;5098296;28;20438;-73
2021/11/24 02:33:48;;;;;;;7.13;6.43;;;;;;;-0.33;100.00;151287.56;5097558;28;20449;-73
2021/11/24 02:36:27;;;;;;;9.77;7.40;;;;;;;-0.31;99.45;151292.69;5116630;28;20522;-73
2021/11/24 02:39:03;;;;;;;8.70;6.93;;;;;;;-0.31;98.52;151292.69;5097363;28;20440;-73
2021/11/24 02:41:38;;;;;;;11.00;6.73;;;;;;;-0.36;98.79;151279.88;5097884;28;20477;-73
2021/11/24 02:44:16;;;;;;;9.80;6.93;;;;;;;-0.38;99.00;151274.75;5081739;28;20447;-73
2021/11/24 02:46:52;;;;;;;9.10;6.87;;;;;;;-0.36;99.28;151279.88;5098094;28;20417;-73
2021/11/24 02:49:28;;;;;;;9.87;7.60;;;;;;;-0.38;99.45;151274.75;5094497;28;20440;-73
2021/11/24 02:52:05;;;;;;;10.80;7.20;;;;;;;-0.36;99.66;151279.88;5097563;28;20449;-73
2021/11/24 02:54:41;;;;;;;10.27;7.23;;;;;;;-0.34;98.87;151284.97;5093550;28;20566;-74
2021/11/24 02:57:17;;;;;;;11.00;7.47;;;;;;;-0.34;98.70;151284.97;5094101;28;20931;-74
2021/11/24 02:59:52;;;;;;;11.97;7.80;;;;;;;-0.35;98.97;151282.44;5115164;28;20447;-73
2021/11/24 03:02:28;;;;;;;11.00;8.33;;;;;;;-0.34;99.23;151284.97;5075264;28;20432;-73
2021/11/24 03:05:04;;;;;;;8.50;6.90;;;;;;;-0.34;99.07;151284.97;5115596;28;20818;-74
2021/11/24 03:07:42;;;;;;;9.77;6.80;;;;;;;-0.37;99.45;151276.03;5093955;28;20477;-74
2021/11/24 03:10:18;;;;;;;9.20;7.50;;;;;;;-0.39;99.66;151272.16;5106157;28;20510;-74
2021/11/24 03:12:53;;;;;;;8.80;7.90;;;;;;;-0.42;99.68;151263.16;5097184;28;20794;-73
2021/11/24 03:15:29;;;;;;;9.60;7.73;;;;;;;-0.43;100.00;151260.63;5096180;28;20478;-73
2021/11/24 03:18:04;;;;;;;9.73;7.03;;;;;;;-0.43;100.00;151260.63;5096463;28;20453;-73
2021/11/24 03:20:40;;;;;;;9.17;7.60;;;;;;;-0.48;100.00;151249.09;5115757;28;20471;-73
2021/11/24 03:23:17;;;;;;;9.50;8.13;;;;;;;-0.62;100.00;151214.47;5086313;28;20440;-74
2021/11/24 03:25:52;;;;;;;10.17;8.03;;;;;;;-0.65;100.00;151205.47;5076527;28;20440;-73
2021/11/24 03:28:28;;;;;;;8.83;7.63;;;;;;;-0.70;100.00;151192.66;5061038;28;20443;-73
2021/11/24 03:31:04;;;;;;;9.23;7.63;;;;;;;-0.71;100.00;151191.34;5093736;28;20807;-73
2021/11/24 03:33:39;;;;;;;11.13;8.23;;;;;;;-0.76;100.00;151177.25;5076689;28;20466;-73
2021/11/24 03:36:14;;;;;;;8.70;7.10;;;;;;;-0.79;100.00;151169.56;5095133;28;20448;-73
2021/11/24 03:38:51;;;;;;;11.63;7.90;;;;;;;-0.84;100.00;151156.72;5076620;28;20943;-73
2021/11/24 03:41:26;;;;;;;10.07;7.87;;;;;;;-0.87;100.00;151149.03;5056956;28;20452;-73
2021/11/24 03:44:02;;;;;;;10.70;7.43;;;;;;;-0.78;100.00;151173.44;5074994;28;20425;-73
2021/11/24 03:46:37;;;;;;;9.00;7.33;;;;;;;-0.77;100.00;151174.72;5075887;28;20433;-74
2021/11/24 03:49:13;;;;;;;11.70;8.90;;;;;;;-0.81;100.00;151164.44;5076143;28;20436;-73
2021/11/24 03:51:49;;;;;;;9.80;7.57;;;;;;;-0.92;100.00;151136.22;5104680;28;20523;-74
2021/11/24 03:54:26;;;;;;;11.60;8.70;;;;;;;-0.96;100.00;151127.28;5081067;28;20480;-74
2021/11/24 03:57:02;;;;;;;8.97;7.67;;;;;;;-0.93;100.00;151134.97;5077194;28;20443;-73
2021/11/24 03:59:37;;;;;;;9.90;7.70;;;;;;;-0.96;100.00;151125.97;5094389;28;20454;-73
2021/11/24 04:02:13;;;;;;;10.60;7.13;;;;;;;-1.00;100.00;151115.69;5094262;28;20874;-73
2021/11/24 04:04:48;;;;;;;10.80;7.80;;;;;;;-1.02;100.00;151110.59;5094003;28;20482;-73
2021/11/24 04:07:24;;;;;;;16.53;8.47;;;;;;;-0.97;100.00;151123.41;5076219;28;20441;-73
2021/11/24 04:10:01;;;;;;;10.23;7.70;;;;;;;-0.87;100.00;151149.03;5089924;28;20495;-73
2021/11/24 04:12:38;;;;;;;12.57;7.10;;;;;;;-0.90;100.00;151141.38;5075514;28;20428;-73
2021/11/24 04:15:15;;;;;;;12.23;8.60;;;;;;;-0.92;100.00;151136.22;5075336;28;20477;-73
2021/11/24 04:17:51;;;;;;;12.17;8.07;;;;;;;-1.03;100.00;151108.06;5093068;28;20905;-73
2021/11/24 04:20:26;;;;;;;8.57;7.27;;;;;;;-1.10;100.00;151090.06;5076566;28;20480;-73
2021/11/24 04:23:02;;;;;;;12.97;8.93;;;;;;;-1.16;100.00;151074.66;5093764;28;20439;-74
2021/11/24 04:25:39;;;;;;;10.77;7.80;;;;;;;-1.22;100.00;151061.88;5091325;28;20469;-73
2021/11/24 04:28:14;;;;;;;9.87;7.33;;;;;;;-1.17;100.00;151072.13;5092610;28;20441;-74
2021/11/24 04:30:50;;;;;;;10.90;8.20;;;;;;;-1.20;100.00;151064.44;5092275;28;20547;-73
2021/11/24 04:33:25;;;;;;;12.30;7.70;;;;;;;-1.27;100.00;151049.06;5091520;28;20431;-74
2021/11/24 04:36:01;;;;;;;10.47;7.80;;;;;;;-1.27;100.00;151047.75;5084502;28;20473;-73
2021/11/24 04:38:36;;;;;;;11.77;7.47;;;;;;;-1.28;100.00;151045.22;5092033;28;20467;-73
2021/11/24 04:41:14;;;;;;;8.63;7.60;;;;;;;-1.30;100.00;151040.13;5091484;28;20444;-73
2021/11/24 04:43:49;;;;;;;13.40;7.50;;;;;;;-1.35;100.00;151028.53;5085445;28;20523;-74
2021/11/24 04:46:25;;;;;;;10.73;7.90;;;;;;;-1.37;100.00;151023.44;5092381;28;20447;-73
2021/11/24 04:49:00;;;;;;;9.53;7.80;;;;;;;-1.34;100.00;151031.13;5091929;28;20440;-73
2021/11/24 04:51:36;;;;;;;11.23;8.10;;;;;;;-1.32;100.00;151034.94;5090872;28;20915;-74
2021/11/24 04:54:12;;;;;;;11.40;8.10;;;;;;;-1.10;100.00;151090.06;5092396;28;20480;-75
2021/11/24 04:56:49;;;;;;;11.83;8.33;;;;;;;-1.10;100.00;151090.06;5093473;28;20415;-74
2021/11/24 04:59:24;;;;;;;12.20;8.93;;;;;;;-1.09;100.00;151092.66;5091771;28;20443;-73
2021/11/24 05:02:00;;;;;;;12.10;9.40;;;;;;;-1.06;100.00;151100.34;5084169;28;20438;-73
2021/11/24 05:04:36;;;;;;;11.40;8.43;;;;;;;-0.99;100.00;151118.28;5071350;28;20439;-74
2021/11/24 05:07:11;;;;;;;8.53;7.63;;;;;;;-1.02;100.00;151110.59;5072201;28;20495;-73
2021/11/24 05:09:47;;;;;;;10.57;7.73;;;;;;;-1.02;100.00;151111.88;5078958;28;20488;-74
2021/11/24 05:12:24;;;;;;;11.23;8.37;;;;;;;-1.08;100.00;151096.47;5090386;28;20432;-73
2021/11/24 05:15:01;;;;;;;10.57;8.53;;;;;;;-1.13;100.00;151083.66;5093093;28;20822;-73
2021/11/24 05:17:38;;;;;;;10.20;8.60;;;;;;;-1.14;100.00;151079.84;5082889;28;20932;-73
2021/11/24 05:20:16;;;;;;;10.57;8.53;;;;;;;-1.16;100.00;151074.66;5094072;28;20453;-74
2021/11/24 05:22:53;;;;;;;11.90;8.90;;;;;;;-1.15;100.00;151078.56;5092671;28;20441;-73
2021/11/24 05:25:29;;;;;;;9.80;8.77;;;;;;;-1.14;100.00;151079.84;5096005;28;20428;-73
2021/11/24 05:28:06;;;;;;;14.57;8.50;;;;;;;-1.15;100.00;151077.25;5094863;28;20416;-73
2021/11/24 05:30:42;;;;;;;14.23;9.20;;;;;;;-1.09;100.00;151092.66;5090657;28;20448;-74
2021/11/24 05:33:17;;;;;;;11.00;8.67;;;;;;;-1.08;100.00;151095.19;5091465;28;20436;-73
2021/11/24 05:35:53;;;;;;;12.53;8.27;;;;;;;-1.19;100.00;151067.03;5110139;28;20558;-74
2021/11/24 05:38:29;;;;;;;14.23;9.57;;;;;;;-1.25;100.00;151052.91;5113083;28;20471;-73
2021/11/24 05:41:04;;;;;;;10.53;8.93;;;;;;;-1.32;100.00;151036.22;5093992;28;20480;-74
2021/11/24 05:43:41;;;;;;;11.30;8.57;;;;;;;-1.33;100.00;151033.69;5087715;28;20430;-73
2021/11/24 05:46:27;;;;;;;12.40;9.50;;;;;;;-1.35;100.00;151028.53;5074489;28;20543;-72
2021/11/24 05:49:02;;;;;;;14.03;9.00;;;;;;;-1.35;100.00;151028.53;5097039;28;20471;-73
2021/11/24 05:51:38;;;;;;;10.77;9.00;;;;;;;-1.37;100.00;151022.13;5090671;28;20445;-73
2021/11/24 05:54:13;;;;;;;12.50;9.47;;;;;;;-1.33;100.00;151033.69;5094510;28;20444;-72
2021/11/24 05:56:49;;;;;;;14.47;10.00;;;;;;;-1.32;100.00;151034.94;5112921;28;20452;-72
2021/11/24 05:59:26;;;;;;;13.20;9.80;;;;;;;-1.36;100.00;151026.00;5086232;28;20447;-72
2021/11/24 06:02:01;;;;;;;11.27;9.40;;;;;;;-1.36;100.00;151024.72;5094403;28;20925;-73
2021/11/24 06:04:37;;;;;;;11.40;9.40;;;;;;;-1.37;100.00;151023.44;5098056;28;20481;-78
2021/11/24 06:07:13;;;;;;;15.07;10.40;;;;;;;-1.38;100.00;151019.59;5098643;28;20421;-74
2021/11/24 06:09:48;;;;;;;16.70;10.40;;;;;;;-1.34;100.00;151029.84;5099384;28;20443;-74
2021/11/24 06:12:24;;;;;;;13.57;10.33;;;;;;;-1.36;100.00;151026.00;5100180;28;20443;-74
2021/11/24 06:15:01;;;;;;;16.30;10.57;;;;;;;-1.31;100.00;151038.81;5080583;28;20577;-73
2021/11/24 06:17:37;;;;;;;13.50;10.77;;;;;;;-1.35;100.00;151027.28;5080054;28;20436;-74
2021/11/24 06:20:14;;;;;;;15.73;10.57;;;;;;;-1.38;100.00;151020.84;5095480;28;20443;-74
2021/11/24 06:22:50;;;;;;;13.77;9.97;;;;;;;-1.31;100.00;151038.81;5098066;28;20444;-74
2021/11/24 06:25:26;;;;;;;15.67;10.00;;;;;;;-1.35;100.00;151028.53;5102201;28;20445;-74
2021/11/24 06:28:01;;;;;;;14.73;10.00;;;;;;;-1.30;100.00;151040.13;5084853;28;20435;-74
2021/11/24 06:30:38;;;;;;;14.00;10.80;;;;;;;-1.36;100.00;151026.00;5097543;28;20472;-74
2021/11/24 06:33:13;;;;;;;22.37;12.20;;;;;;;-1.36;100.00;151026.00;5080343;28;20942;-74
2021/11/24 06:35:49;;;;;;;13.47;10.37;;;;;;;-1.30;100.00;151040.13;5098363;28;20562;-74
2021/11/24 06:38:24;;;;;;;14.33;10.00;;;;;;;-1.31;100.00;151038.81;5097099;28;20485;-74
2021/11/24 06:41:00;;;;;;;14.30;10.67;;;;;;;-1.37;100.00;151023.44;5082911;28;20555;-74
2021/11/24 06:43:35;;;;;;;14.97;11.40;;;;;;;-1.38;100.00;151020.84;5085604;28;20917;-74
2021/11/24 06:46:12;;;;;;;13.33;10.00;;;;;;;-1.40;100.00;151015.72;5064793;28;20449;-74
2021/11/24 06:48:48;;;;;;;14.80;11.57;;;;;;;-1.32;100.00;151036.22;5078539;28;20498;-74
2021/11/24 06:51:24;;;;;;;15.37;10.80;;;;;;;-1.34;100.00;151029.84;5080286;28;20931;-74
2021/11/24 06:54:00;;;;;;;15.93;11.30;;;;;;;-1.31;100.00;151037.53;5077636;28;20440;-74
2021/11/24 06:56:36;;;;;;;17.93;11.93;;;;;;;-1.28;100.00;151046.50;5079120;28;20812;-73
2021/11/24 06:59:12;;;;;;;17.30;11.70;;;;;;;-1.25;100.00;151052.91;5065136;28;20957;-73
2021/11/24 07:01:50;;;;;;;18.50;12.37;;;;;;;-1.28;100.00;151046.50;5079828;28;20454;-73
2021/11/24 07:04:25;;;;;;;17.10;11.70;;;;;;;-1.35;100.00;151027.28;5079883;28;20442;-73
2021/11/24 07:07:01;;;;;;;16.90;12.83;;;;;;;-1.24;100.00;151055.44;5084037;28;20432;-73
2021/11/24 07:09:37;;;;;;;17.93;12.80;;;;;;;-1.29;100.00;151042.66;5092463;28;20481;-74
2021/11/24 07:12:12;;;;;;;17.13;12.17;;;;;;;-1.18;100.00;151070.84;5079741;28;20535;-73
2021/11/24 07:14:48;;;;;;;24.40;13.57;;;;;;;-1.13;100.00;151082.38;5076739;28;20442;-73
2021/11/24 07:17:26;;;;;;;18.77;11.90;;;;;;;-1.08;100.00;151095.19;5057774;28;20444;-73
2021/11/24 07:20:03;;;;;;;16.63;12.83;;;;;;;-0.99;100.00;151118.28;5089393;28;20457;-74
2021/11/24 07:22:39;;;;;;;19.47;13.97;;;;;;;-0.98;100.00;151122.09;5087472;28;20436;-74
2021/11/24 07:25:15;;;;;;;17.17;11.77;;;;;;;-0.92;100.00;151136.22;5094349;28;20445;-74
2021/11/24 07:27:50;;;;;;;18.10;12.57;;;;;;;-1.00;100.00;151115.69;5080009;28;20844;-74
2021/11/24 07:30:26;;;;;;;19.67;12.60;;;;;;;-1.01;100.00;151114.47;5094335;28;20860;-73
2021/11/24 07:33:03;;;;;;;23.57;12.43;;;;;;;-0.99;100.00;151118.28;5093773;28;20518;-74
2021/11/24 07:35:39;;;;;;;16.43;13.50;;;;;;;-0.91;100.00;151138.78;5075442;28;20827;-73
2021/11/24 07:38:14;;;;;;;16.13;11.80;;;;;;;-0.87;100.00;151149.03;5092899;28;20483;-73
2021/11/24 07:40:51;;;;;;;20.63;12.63;;;;;;;-0.85;100.00;151154.19;5089833;28;20800;-73
2021/11/24 07:43:26;;;;;;;17.10;12.20;;;;;;;-0.86;100.00;151152.91;5107695;28;20546;-74
2021/11/24 07:46:02;;;;;;;20.40;12.97;;;;;;;-0.84;100.00;151156.72;5078266;28;20449;-74
2021/11/24 07:48:39;;;;;;;17.03;12.83;;;;;;;-0.84;100.00;151156.72;5080030;28;20445;-74
2021/11/24 07:51:17;;;;;;;18.23;14.33;;;;;;;-0.89;100.00;151143.91;5086676;28;20487;-74
2021/11/24 07:53:53;;;;;;;21.90;12.73;;;;;;;-0.90;100.00;151141.38;5079792;28;20453;-74
2021/11/24 07:56:29;;;;;;;17.60;13.80;;;;;;;-0.94;100.00;151131.09;5092015;28;20478;-74
2021/11/24 07:59:04;;;;;;;16.93;12.93;;;;;;;-0.85;100.00;151154.19;5084677;28;20440;-74
2021/11/24 08:01:40;;;;;;;19.03;13.17;;;;;;;-0.83;100.00;151159.31;5075310;28;20435;-74
2021/11/24 08:04:17;;;;;;;15.27;11.87;;;;;;;-0.70;100.00;151192.66;5093084;28;20444;-73
2021/11/24 08:06:52;;;;;;;17.40;11.70;;;;;;;-0.68;100.00;151199.06;5098804;28;20531;-74
2021/11/24 08:09:28;;;;;;;18.97;12.23;;;;;;;-0.71;100.00;151190.06;5071473;28;20468;-74
2021/11/24 08:12:04;;;;;;;20.13;12.20;;;;;;;-0.70;100.00;151193.94;5082340;28;20435;-73
2021/11/24 08:14:39;;;;;;;17.30;11.77;;;;;;;-0.71;100.00;151190.06;5092815;28;20437;-74
2021/11/24 08:17:15;;;;;;;18.77;13.50;;;;;;;-0.64;100.00;151208.06;5093381;28;20452;-73
2021/11/24 08:19:52;;;;;;;20.70;12.93;;;;;;;-0.59;100.00;151220.88;5113152;28;20449;-74
2021/11/24 08:22:29;;;;;;;17.37;12.47;;;;;;;-0.58;100.00;151222.16;5095214;28;20436;-74
2021/11/24 08:25:06;;;;;;;17.40;12.00;;;;;;;-0.54;100.00;151233.69;5113339;28;20478;-74
2021/11/24 08:27:42;;;;;;;22.10;12.60;;;;;;;-0.54;100.00;151233.69;5091735;28;20468;-73
2021/11/24 08:30:17;;;;;;;15.70;11.00;;;;;;;-0.60;100.00;151218.28;5077874;28;20441;-74
2021/11/24 08:32:54;;;;;;;16.67;11.53;;;;;;;-0.59;100.00;151220.88;5095908;28;20531;-74
2021/11/24 08:35:31;;;;;;;23.20;12.30;;;;;;;-0.51;100.00;151240.09;5072152;27;20876;-74
2021/11/24 08:38:06;;;;;;;16.30;11.70;;;;;;;-0.39;100.00;151272.16;5097295;28;20449;-74
2021/11/24 08:40:42;;;;;;;20.73;13.60;;;;;;;-0.27;100.00;151302.97;5082703;28;20450;-74
2021/11/24 08:43:17;;;;;;;19.13;12.50;;;;;;;-0.19;100.00;151322.22;5093721;28;20457;-74
2021/11/24 08:45:53;;;;;;;19.77;12.50;;;;;;;-0.16;100.00;151329.91;5078250;28;20449;-74
2021/11/24 08:48:29;;;;;;;18.83;11.97;;;;;;;-0.07;100.00;151354.28;5094374;28;20794;-74
2021/11/24 08:51:06;;;;;;;18.57;12.50;;;;;;;0.07;100.00;151387.63;5095248;28;20760;-74
2021/11/24 08:53:42;;;;;;;22.27;12.77;;;;;;;0.09;100.00;151392.75;5091617;28;20442;-74
2021/11/24 08:56:17;;;;;;;20.70;13.90;;;;;;;0.09;100.00;151392.75;5084754;28;20529;-74
2021/11/24 08:58:53;;;;;;;19.67;13.07;;;;;;;0.06;100.00;151385.06;5083907;28;20451;-74
2021/11/24 09:01:28;;;;;;;19.03;12.73;;;;;;;0.12;100.00;151400.47;5089073;28;20457;-74
2021/11/24 09:04:04;;;;;;;19.40;12.90;;;;;;;0.21;100.00;151423.59;5094274;28;20519;-74
2021/11/24 09:06:41;;;;;;;18.03;13.63;;;;;;;0.25;100.00;151435.13;5106478;28;20433;-74
2021/11/24 09:09:17;;;;;;;24.10;14.30;;;;;;;0.20;100.00;151422.28;5093547;28;20439;-74
2021/11/24 09:11:52;;;;;;;20.47;12.93;;;;;;;0.19;100.00;151418.41;5092322;28;20445;-74
2021/11/24 09:14:28;;;;;;;20.93;13.83;;;;;;;0.24;100.00;151431.28;5077521;28;20446;-74
2021/11/24 09:17:03;;;;;;;21.20;11.80;;;;;;;0.32;100.00;151453.06;5089114;28;20457;-74
2021/11/24 09:19:39;;;;;;;21.00;14.67;;;;;;;0.34;100.00;151456.97;5094005;28;20442;-74
2021/11/24 09:22:17;;;;;;;21.23;13.10;;;;;;;0.40;100.00;151472.31;5093271;28;20476;-74
2021/11/24 09:24:56;;;;;;;22.67;14.03;;;;;;;0.41;100.00;151474.91;5086929;28;20444;-74
2021/11/24 09:27:34;;;;;;;21.67;13.77;;;;;;;0.44;100.00;151483.91;5089259;28;20444;-74
2021/11/24 09:30:09;;;;;;;18.00;12.63;;;;;;;0.44;100.00;151482.63;5094363;28;20564;-74
2021/11/24 09:32:45;;;;;;;22.03;14.33;;;;;;;0.46;100.00;151487.75;5087114;28;20955;-74
2021/11/24 09:35:21;;;;;;;20.47;13.53;;;;;;;0.51;100.00;151500.56;5082121;28;20456;-74
2021/11/24 09:37:58;;;;;;;21.00;13.00;;;;;;;0.52;100.00;151503.16;5084865;28;20460;-74
2021/11/24 09:40:34;;;;;;;17.20;12.53;;;;;;;0.56;100.00;151513.41;5072427;28;20442;-74
2021/11/24 09:43:11;;;;;;;20.23;13.20;;;;;;;0.52;100.00;151503.16;5089550;28;20913;-74
2021/11/24 09:45:47;;;;;;;23.60;14.03;;;;;;;0.55;100.00;151512.16;5088962;28;20452;-74
2021/11/24 09:48:23;;;;;;;19.80;13.00;;;;;;;0.63;100.00;151530.13;5091348;28;20440;-74
2021/11/24 09:51:00;;;;;;;21.90;13.60;;;;;;;0.62;100.00;151528.81;5089919;28;20440;-74
2021/11/24 09:53:38;;;;;;;18.93;12.23;;;;;;;0.61;100.00;151526.25;5091262;28;20441;-74
2021/11/24 09:56:14;;;;;;;20.83;13.27;;;;;;;0.72;100.00;151554.50;5088261;28;20476;-74
2021/11/24 09:58:50;;;;;;;18.00;12.97;;;;;;;0.71;100.00;151551.97;5088741;28;20455;-74
2021/11/24 10:01:26;;;;;;;18.97;13.07;;;;;;;0.68;100.00;151544.25;5090584;28;20455;-74
2021/11/24 10:04:02;;;;;;;20.07;12.67;;;;;;;0.74;100.00;151559.66;5091765;28;20417;-74
2021/11/24 10:06:39;;;;;;;20.27;13.50;;;;;;;0.97;100.00;151617.44;5090761;28;20437;-74
2021/11/24 10:09:16;;;;;;;21.00;13.33;;;;;;;0.97;100.00;151618.72;5089418;28;20440;-74
2021/11/24 10:11:51;;;;;;;20.07;12.77;;;;;;;0.97;100.00;151617.44;5087097;28;20448;-74
2021/11/24 10:14:27;;;;;;;20.23;13.70;;;;;;;1.02;100.00;151630.28;5090135;28;20713;-74
2021/11/24 10:17:07;;;;;;;20.10;13.43;;;;;;;1.12;100.00;151655.97;5088418;28;20982;-74
2021/11/24 10:19:58;;;;;;;20.63;14.17;;;;;;;1.30;100.00;151702.19;5075298;28;20471;-74
2021/11/24 10:22:34;;;;;;;20.10;13.77;;;;;;;1.35;100.00;151713.78;5091177;28;20986;-74
2021/11/24 10:25:13;;;;;;;19.83;12.53;;;;;;;1.37;100.00;151718.91;5084602;28;20487;-74
2021/11/24 10:27:49;;;;;;;21.40;15.50;;;;;;;1.51;100.00;151754.91;5068845;28;20429;-74
2021/11/24 10:30:27;;;;;;;17.37;11.37;;;;;;;1.47;100.00;151744.59;5090224;28;20456;-74
2021/11/24 10:33:16;;;;;;;17.60;12.73;;;;;;;1.62;100.00;151783.13;5072224;28;20441;-74
2021/11/24 10:36:04;;;;;;;18.87;12.40;;;;;;;1.77;100.00;151821.72;5073599;28;20448;-74
2021/11/24 10:38:42;;;;;;;18.83;12.50;;;;;;;1.85;100.00;151842.28;5069003;28;20842;-74
2021/11/24 10:41:28;;;;;;;17.60;11.90;;;;;;;1.81;100.00;151832.00;5073826;28;20479;-74
2021/11/24 10:44:05;;;;;;;13.50;10.47;;;;;;;1.83;100.00;151838.41;5067004;28;20448;-74
2021/11/24 10:46:41;;;;;;;14.57;11.93;;;;;;;1.87;100.00;151847.41;5087902;28;20445;-74
2021/11/24 10:49:17;;;;;;;20.30;12.20;;;;;;;1.95;98.90;151868.00;5073509;28;20810;-74
2021/11/24 10:51:52;;;;;;;15.70;11.23;;;;;;;2.00;99.73;151879.56;5068719;28;20453;-74
2021/11/24 10:54:28;;;;;;;15.50;11.27;;;;;;;1.99;97.37;151878.25;5072261;28;20452;-74
2021/11/24 10:57:07;;;;;;;15.43;11.50;;;;;;;1.89;97.50;151852.56;5076652;28;20472;-74
2021/11/24 10:59:44;;;;;;;19.13;11.97;;;;;;;1.72;96.88;151810.13;5076257;28;20452;-74
2021/11/24 11:02:25;;;;;;;18.03;11.50;;;;;;;1.59;97.66;151775.47;5077357;28;20486;-74
2021/11/24 11:05:04;;;;;;;19.03;12.70;;;;;;;1.50;99.24;151752.31;5066577;28;20486;-74
2021/11/24 11:07:42;;;;;;;18.90;12.43;;;;;;;1.52;99.76;151758.75;5073663;28;20455;-74
2021/11/24 11:10:19;;;;;;;18.80;12.10;;;;;;;1.58;98.17;151774.19;5094187;28;20448;-74
2021/11/24 11:12:58;;;;;;;20.13;12.70;;;;;;;1.57;99.13;151770.28;5075600;28;21006;-74
2021/11/24 11:15:35;;;;;;;19.77;11.60;;;;;;;1.61;98.65;151780.59;5076276;28;20452;-74
2021/11/24 11:18:16;;;;;;;16.50;11.67;;;;;;;1.69;99.37;151801.16;5056500;28;20503;-74
2021/11/24 11:20:55;;;;;;;17.20;11.93;;;;;;;1.62;98.54;151783.13;5070601;28;20823;-74
2021/11/24 11:23:32;;;;;;;17.00;11.80;;;;;;;1.59;97.90;151775.47;5091575;28;20456;-74
2021/11/24 11:26:11;;;;;;;16.00;10.93;;;;;;;1.75;96.46;151816.56;5074669;28;20441;-74
2021/11/24 11:28:49;;;;;;;15.47;11.33;;;;;;;1.72;97.35;151808.88;5060521;28;20467;-74
2021/11/24 11:31:28;;;;;;;15.07;10.13;;;;;;;1.77;96.53;151821.72;5075735;28;20448;-74
2021/11/24 11:34:03;;;;;;;15.50;11.33;;;;;;;1.77;96.67;151821.72;5093653;28;20440;-74
2021/11/24 11:36:39;;;;;;;12.03;9.10;;;;;;;1.78;94.15;151825.56;5090724;28;20787;-74
2021/11/24 11:39:15;;;;;;;16.10;9.77;;;;;;;1.83;92.61;151837.13;5094727;28;20409;-74
2021/11/24 11:41:51;;;;;;;16.03;10.27;;;;;;;1.84;93.26;151839.72;5094587;28;20420;-74
2021/11/24 11:44:28;;;;;;;18.20;12.00;;;;;;;1.96;92.70;151870.53;5086378;28;20441;-74
2021/11/24 11:47:03;;;;;;;16.40;10.77;;;;;;;1.87;91.71;151847.41;5074455;28;20836;-74
2021/11/24 11:49:39;;;;;;;14.77;10.83;;;;;;;1.80;92.85;151830.69;5071813;28;20448;-74
2021/11/24 11:52:14;;;;;;;15.70;9.90;;;;;;;1.77;92.97;151821.72;5093887;28;20437;-74